Map

Track Data

SID SEASON NUMBER BASIN SUBBASIN NAME ISO_TIME NATURE LAT LON WMO_WIND WMO_PRES WMO_AGENCY TRACK_TYPE DIST2LAND LANDFALL IFLAG USA_AGENCY USA_ATCF_ID USA_LAT USA_LON USA_RECORD USA_STATUS USA_WIND USA_PRES USA_SSHS USA_R34_NE USA_R34_SE USA_R34_SW USA_R34_NW USA_R50_NE USA_R50_SE USA_R50_SW USA_R50_NW USA_R64_NE USA_R64_SE USA_R64_SW USA_R64_NW USA_POCI USA_ROCI USA_RMW USA_EYE TOKYO_LAT TOKYO_LON TOKYO_GRADE TOKYO_WIND TOKYO_PRES TOKYO_R50_DIR TOKYO_R50_LONG TOKYO_R50_SHORT TOKYO_R30_DIR TOKYO_R30_LONG TOKYO_R30_SHORT TOKYO_LAND CMA_LAT CMA_LON CMA_CAT CMA_WIND CMA_PRES HKO_LAT HKO_LON HKO_CAT HKO_WIND HKO_PRES NEWDELHI_LAT NEWDELHI_LON NEWDELHI_GRADE NEWDELHI_WIND NEWDELHI_PRES NEWDELHI_CI NEWDELHI_DP NEWDELHI_POCI REUNION_LAT REUNION_LON REUNION_TYPE REUNION_WIND REUNION_PRES REUNION_TNUM REUNION_CI REUNION_RMW REUNION_R34_NE REUNION_R34_SE REUNION_R34_SW REUNION_R34_NW REUNION_R50_NE REUNION_R50_SE REUNION_R50_SW REUNION_R50_NW REUNION_R64_NE REUNION_R64_SE REUNION_R64_SW REUNION_R64_NW BOM_LAT BOM_LON BOM_TYPE BOM_WIND BOM_PRES BOM_TNUM BOM_CI BOM_RMW BOM_R34_NE BOM_R34_SE BOM_R34_SW BOM_R34_NW BOM_R50_NE BOM_R50_SE BOM_R50_SW BOM_R50_NW BOM_R64_NE BOM_R64_SE BOM_R64_SW BOM_R64_NW BOM_ROCI BOM_POCI BOM_EYE BOM_POS_METHOD BOM_PRES_METHOD NADI_LAT NADI_LON NADI_CAT NADI_WIND NADI_PRES WELLINGTON_LAT WELLINGTON_LON WELLINGTON_WIND WELLINGTON_PRES DS824_LAT DS824_LON DS824_STAGE DS824_WIND DS824_PRES TD9636_LAT TD9636_LON TD9636_STAGE TD9636_WIND TD9636_PRES TD9635_LAT TD9635_LON TD9635_WIND TD9635_PRES TD9635_ROCI NEUMANN_LAT NEUMANN_LON NEUMANN_CLASS NEUMANN_WIND NEUMANN_PRES MLC_LAT MLC_LON MLC_CLASS MLC_WIND MLC_PRES USA_GUST BOM_GUST BOM_GUST_PER REUNION_GUST REUNION_GUST_PER USA_SEAHGT USA_SEARAD_NE USA_SEARAD_SE USA_SEARAD_SW USA_SEARAD_NW STORM_SPEED STORM_DIR
1874080S13073 1874 9 SI MM NOT_NAMED 1874-03-21 06:00:00 NR -13.4000 72.9000 reunion main 1781 1781 _____O________ -1 -13.4000 72.9000 99 9.90000 1 49
1874080S13073 1874 9 SI MM NOT_NAMED 1874-03-21 09:00:00 NR -13.3741 72.9408 main 1781 1781 _____P________ -1 -13.3741 72.9408 99 1 56
1874080S13073 1874 9 SI MM NOT_NAMED 1874-03-21 12:00:00 NR -13.3507 72.9681 main 1791 1791 _____P________ -1 -13.3507 72.9681 99 1 0
1874080S13073 1874 9 SI MM NOT_NAMED 1874-03-21 15:00:00 NR -13.3323 72.9687 main 1796 1786 _____P________ -1 -13.3323 72.9687 99 0 302
1874080S13073 1874 9 SI MM NOT_NAMED 1874-03-21 18:00:00 NR -13.3213 72.9290 main 1786 1777 _____P________ -1 -13.3213 72.9290 99 1 275
1874080S13073 1874 9 SI MM NOT_NAMED 1874-03-21 21:00:00 NR -13.3202 72.8358 main 1777 1767 _____P________ -1 -13.3202 72.8358 99 2 268
1874080S13073 1874 9 SI MM NOT_NAMED 1874-03-22 00:00:00 NR -13.3314 72.6755 main 1767 1743 _____P________ -1 -13.3314 72.6755 99 4 265
1874080S13073 1874 9 SI MM NOT_NAMED 1874-03-22 03:00:00 NR -13.3573 72.4348 main 1733 1705 _____P________ -1 -13.3573 72.4348 99 6 263
1874080S13073 1874 9 SI MM NOT_NAMED 1874-03-22 06:00:00 NR -13.4000 72.1000 reunion main 1705 1662 _____O________ -1 -13.4000 72.1000 99 9.90000 8 262
1874080S13073 1874 9 SI MM NOT_NAMED 1874-03-22 09:00:00 NR -13.4608 71.6628 main 1662 1614 _____P________ -1 -13.4608 71.6628 99 9 262
1874080S13073 1874 9 SI MM NOT_NAMED 1874-03-22 12:00:00 NR -13.5379 71.1359 main 1605 1552 _____P________ -1 -13.5379 71.1359 99 11 261
1874080S13073 1874 9 SI MM NOT_NAMED 1874-03-22 15:00:00 NR -13.6285 70.5373 main 1543 1481 _____P________ -1 -13.6285 70.5373 99 12 261
1874080S13073 1874 9 SI MM NOT_NAMED 1874-03-22 18:00:00 NR -13.7301 69.8849 main 1481 1411 _____P________ -1 -13.7301 69.8849 99 13 261
1874080S13073 1874 9 SI MM NOT_NAMED 1874-03-22 21:00:00 NR -13.8402 69.1970 main 1411 1341 _____P________ -1 -13.8402 69.1970 99 14 261
1874080S13073 1874 9 SI MM NOT_NAMED 1874-03-23 00:00:00 NR -13.9566 68.4914 main 1335 1265 _____P________ -1 -13.9566 68.4914 99 14 260
1874080S13073 1874 9 SI MM NOT_NAMED 1874-03-23 03:00:00 NR -14.0771 67.7864 main 1265 1196 _____P________ -1 -14.0771 67.7864 99 14 260
1874080S13073 1874 9 SI MM NOT_NAMED 1874-03-23 06:00:00 NR -14.2000 67.1000 reunion main 1196 1137 _____O________ -1 -14.2000 67.1000 99 9.90000 13 259
1874080S13073 1874 9 SI MM NOT_NAMED 1874-03-23 09:00:00 NR -14.3112 66.4855 main 1137 1079 _____P________ -1 -14.3112 66.4855 99 12 259
1874080S13073 1874 9 SI MM NOT_NAMED 1874-03-23 12:00:00 NR -14.4265 65.8768 main 1079 1021 _____P________ -1 -14.4265 65.8768 99 12 259
1874080S13073 1874 9 SI MM NOT_NAMED 1874-03-23 15:00:00 NR -14.5458 65.2766 main 1021 957 _____P________ -1 -14.5458 65.2766 99 12 258
1874080S13073 1874 9 SI MM NOT_NAMED 1874-03-23 18:00:00 NR -14.6691 64.6876 main 957 901 _____P________ -1 -14.6691 64.6876 99 12 257
1874080S13073 1874 9 SI MM NOT_NAMED 1874-03-23 21:00:00 NR -14.7961 64.1127 main 901 854 _____P________ -1 -14.7961 64.1127 99 11 257
1874080S13073 1874 9 SI MM NOT_NAMED 1874-03-24 00:00:00 NR -14.9270 63.5546 main 854 792 _____P________ -1 -14.9270 63.5546 99 11 256
1874080S13073 1874 9 SI MM NOT_NAMED 1874-03-24 03:00:00 NR -15.0616 63.0161 main 792 747 _____P________ -1 -15.0616 63.0161 99 11 255
1874080S13073 1874 9 SI MM NOT_NAMED 1874-03-24 06:00:00 NR -15.2000 62.5000 reunion main 747 704 _____O________ -1 -15.2000 62.5000 99 9.90000 11 254
1874080S13073 1874 9 SI MM NOT_NAMED 1874-03-24 09:00:00 NR -15.3478 61.9641 main 704 653 _____P________ -1 -15.3478 61.9641 99 11 254
1874080S13073 1874 9 SI MM NOT_NAMED 1874-03-24 12:00:00 NR -15.5012 61.4456 main 646 612 _____P________ -1 -15.5012 61.4456 99 10 252
1874080S13073 1874 9 SI MM NOT_NAMED 1874-03-24 15:00:00 NR -15.6576 60.9497 main 597 564 _____P________ -1 -15.6576 60.9497 99 10 251
1874080S13073 1874 9 SI MM NOT_NAMED 1874-03-24 18:00:00 NR -15.8146 60.4818 main 564 524 _____P________ -1 -15.8146 60.4818 99 9 250
1874080S13073 1874 9 SI MM NOT_NAMED 1874-03-24 21:00:00 NR -15.9698 60.0473 main 519 494 _____P________ -1 -15.9698 60.0473 99 9 249
1874080S13073 1874 9 SI MM NOT_NAMED 1874-03-25 00:00:00 NR -16.1206 59.6519 main 494 457 _____P________ -1 -16.1206 59.6519 99 8 248
1874080S13073 1874 9 SI MM NOT_NAMED 1874-03-25 03:00:00 NR -16.2648 59.3009 main 457 436 _____P________ -1 -16.2648 59.3009 99 7 246
1874080S13073 1874 9 SI MM NOT_NAMED 1874-03-25 06:00:00 NR -16.4000 59.0000 reunion main 436 419 _____O________ -1 -16.4000 59.0000 99 9.90000 6 246
1874080S13073 1874 9 SI MM NOT_NAMED 1874-03-25 09:00:00 NR -16.5019 58.7578 main 419 402 _____P________ -1 -16.5019 58.7578 99 5 245
1874080S13073 1874 9 SI MM NOT_NAMED 1874-03-25 12:00:00 NR -16.5939 58.5686 main 402 387 _____P________ -1 -16.5939 58.5686 99 4 241
1874080S13073 1874 9 SI MM NOT_NAMED 1874-03-25 15:00:00 NR -16.6808 58.4227 main 387 374 _____P________ -1 -16.6808 58.4227 99 3 235
1874080S13073 1874 9 SI MM NOT_NAMED 1874-03-25 18:00:00 NR -16.7673 58.3104 main 374 361 _____P________ -1 -16.7673 58.3104 99 3 228
1874080S13073 1874 9 SI MM NOT_NAMED 1874-03-25 21:00:00 NR -16.8579 58.2217 main 361 350 _____P________ -1 -16.8579 58.2217 99 2 220
1874080S13073 1874 9 SI MM NOT_NAMED 1874-03-26 00:00:00 NR -16.9571 58.1470 main 349 338 _____P________ -1 -16.9571 58.1470 99 3 213
1874080S13073 1874 9 SI MM NOT_NAMED 1874-03-26 03:00:00 NR -17.0697 58.0764 main 338 325 _____P________ -1 -17.0697 58.0764 99 3 211
1874080S13073 1874 9 SI MM NOT_NAMED 1874-03-26 06:00:00 NR -17.2000 58.0000 reunion main 325 302 _____O________ -1 -17.2000 58.0000 99 9.90000 4 215
1874080S13073 1874 9 SI MM NOT_NAMED 1874-03-26 09:00:00 NR -17.3648 57.8600 main 302 290 _____P________ -1 -17.3648 57.8600 99 4 218
1874080S13073 1874 9 SI MM NOT_NAMED 1874-03-26 12:00:00 NR -17.5467 57.7181 main 290 268 _____P________ -1 -17.5467 57.7181 99 5 215
1874080S13073 1874 9 SI MM NOT_NAMED 1874-03-26 15:00:00 NR -17.7422 57.5774 main 268 246 _____P________ -1 -17.7422 57.5774 99 5 214
1874080S13073 1874 9 SI MM NOT_NAMED 1874-03-26 18:00:00 NR -17.9477 57.4409 main 246 223 _____P________ -1 -17.9477 57.4409 99 5 211
1874080S13073 1874 9 SI MM NOT_NAMED 1874-03-26 21:00:00 NR -18.1598 57.3118 main 213 192 _____P________ -1 -18.1598 57.3118 99 5 209
1874080S13073 1874 9 SI MM NOT_NAMED 1874-03-27 00:00:00 NR -18.3749 57.1932 main 192 172 _____P________ -1 -18.3749 57.1932 99 5 206
1874080S13073 1874 9 SI MM NOT_NAMED 1874-03-27 03:00:00 NR -18.5894 57.0882 main 172 154 _____P________ -1 -18.5894 57.0882 99 5 203
1874080S13073 1874 9 SI MM NOT_NAMED 1874-03-27 06:00:00 NR -18.8000 57.0000 reunion main 154 138 _____O________ -1 -18.8000 57.0000 99 9.90000 4 201
1874080S13073 1874 9 SI MM NOT_NAMED 1874-03-27 09:00:00 NR -18.9863 56.9280 main 138 118 _____P________ -1 -18.9863 56.9280 99 4 197
1874080S13073 1874 9 SI MM NOT_NAMED 1874-03-27 12:00:00 NR -19.1698 56.8718 main 118 109 _____P________ -1 -19.1698 56.8718 99 4 193
1874080S13073 1874 9 SI MM NOT_NAMED 1874-03-27 15:00:00 NR -19.3521 56.8303 main 107 99 _____P________ -1 -19.3521 56.8303 99 4 190
1874080S13073 1874 9 SI MM NOT_NAMED 1874-03-27 18:00:00 NR -19.5347 56.8022 main 99 85 _____P________ -1 -19.5347 56.8022 99 4 186
1874080S13073 1874 9 SI MM NOT_NAMED 1874-03-27 21:00:00 NR -19.7193 56.7863 main 85 76 _____P________ -1 -19.7193 56.7863 99 4 183
1874080S13073 1874 9 SI MM NOT_NAMED 1874-03-28 00:00:00 NR -19.9073 56.7815 main 76 66 _____P________ -1 -19.9073 56.7815 99 4 177
1874080S13073 1874 9 SI MM NOT_NAMED 1874-03-28 03:00:00 NR -20.1004 56.7864 main 66 56 _____P________ -1 -20.1004 56.7864 99 4 0
1874080S13073 1874 9 SI MM NOT_NAMED 1874-03-28 06:00:00 NR -20.3000 56.8000 reunion main 56 52 _____O________ -1 -20.3000 56.8000 99 9.90000 4 177
1874080S13073 1874 9 SI MM NOT_NAMED 1874-03-28 09:00:00 NR -20.4975 56.7900 main 52 52 _____P________ -1 -20.4975 56.7900 99 4 0
1874080S13073 1874 9 SI MM NOT_NAMED 1874-03-28 12:00:00 NR -20.6997 56.7875 main 56 56 _____P________ -1 -20.6997 56.7875 99 4 177
1874080S13073 1874 9 SI MM NOT_NAMED 1874-03-28 15:00:00 NR -20.9081 56.7956 main 68 68 _____P________ -1 -20.9081 56.7956 99 4 0
1874080S13073 1874 9 SI MM NOT_NAMED 1874-03-28 18:00:00 NR -21.1245 56.8172 main 84 84 _____P________ -1 -21.1245 56.8172 99 4 172
1874080S13073 1874 9 SI MM NOT_NAMED 1874-03-28 21:00:00 NR -21.3502 56.8554 main 108 108 _____P________ -1 -21.3502 56.8554 99 5 169
1874080S13073 1874 9 SI MM NOT_NAMED 1874-03-29 00:00:00 NR -21.5870 56.9132 main 118 118 _____P________ -1 -21.5870 56.9132 99 5 165
1874080S13073 1874 9 SI MM NOT_NAMED 1874-03-29 03:00:00 NR -21.8364 56.9937 main 136 136 _____P________ -1 -21.8364 56.9937 99 5 161
1874080S13073 1874 9 SI MM NOT_NAMED 1874-03-29 06:00:00 NR -22.1000 57.1000 reunion main 161 161 _____O________ -1 -22.1000 57.1000 99 9.90000 6 158
1874080S13073 1874 9 SI MM NOT_NAMED 1874-03-29 09:00:00 NR -22.3665 57.2228 main 189 189 _____P________ -1 -22.3665 57.2228 99 6 155
1874080S13073 1874 9 SI MM NOT_NAMED 1874-03-29 12:00:00 NR -22.6461 57.3712 main 219 219 _____P________ -1 -22.6461 57.3712 99 6 153
1874080S13073 1874 9 SI MM NOT_NAMED 1874-03-29 15:00:00 NR -22.9388 57.5433 main 250 250 _____P________ -1 -22.9388 57.5433 99 7 151
1874080S13073 1874 9 SI MM NOT_NAMED 1874-03-29 18:00:00 NR -23.2447 57.7374 main 288 288 _____P________ -1 -23.2447 57.7374 99 7 149
1874080S13073 1874 9 SI MM NOT_NAMED 1874-03-29 21:00:00 NR -23.5637 57.9518 main 342 342 _____P________ -1 -23.5637 57.9518 99 8 148
1874080S13073 1874 9 SI MM NOT_NAMED 1874-03-30 00:00:00 NR -23.8958 58.1849 main 380 380 _____P________ -1 -23.8958 58.1849 99 8 147
1874080S13073 1874 9 SI MM NOT_NAMED 1874-03-30 03:00:00 NR -24.2413 58.4348 main 419 419 _____P________ -1 -24.2413 58.4348 99 8 146
1874080S13073 1874 9 SI MM NOT_NAMED 1874-03-30 06:00:00 NR -24.6000 58.7000 reunion main 469 469 _____O________ -1 -24.6000 58.7000 99 9.90000 9 146
1874080S13073 1874 9 SI MM NOT_NAMED 1874-03-30 09:00:00 NR -25.0104 58.9981 main 520 520 _____P________ -1 -25.0104 58.9981 99 10 146
1874080S13073 1874 9 SI MM NOT_NAMED 1874-03-30 12:00:00 NR -25.4408 59.3192 main 571 571 _____P________ -1 -25.4408 59.3192 99 11 146
1874080S13073 1874 9 SI MM NOT_NAMED 1874-03-30 15:00:00 NR -25.8796 59.6541 main 637 637 _____P________ -1 -25.8796 59.6541 99 11 145
1874080S13073 1874 9 SI MM NOT_NAMED 1874-03-30 18:00:00 NR -26.3153 59.9935 main 689 689 _____P________ -1 -26.3153 59.9935 99 11 145
1874080S13073 1874 9 SI MM NOT_NAMED 1874-03-30 21:00:00 NR -26.7364 60.3279 main 741 741 _____P________ -1 -26.7364 60.3279 99 10 144
1874080S13073 1874 9 SI MM NOT_NAMED 1874-03-31 00:00:00 NR -27.1317 60.6472 main 794 794 _____P________ -1 -27.1317 60.6472 99 9 144
1874080S13073 1874 9 SI MM NOT_NAMED 1874-03-31 03:00:00 NR -27.4900 60.9414 main 846 846 _____P________ -1 -27.4900 60.9414 99 8 144
1874080S13073 1874 9 SI MM NOT_NAMED 1874-03-31 06:00:00 NR -27.8000 61.2000 reunion main 889 889 _____O________ -1 -27.8000 61.2000 99 9.90000 7 143
1874080S13073 1874 9 SI MM NOT_NAMED 1874-03-31 09:00:00 NR -28.0538 61.4152 main 928 928 _____P________ -1 -28.0538 61.4152 99 6 143
1874080S13073 1874 9 SI MM NOT_NAMED 1874-03-31 12:00:00 NR -28.2560 61.5897 main 956 956 _____P________ -1 -28.2560 61.5897 99 5 142
1874080S13073 1874 9 SI MM NOT_NAMED 1874-03-31 15:00:00 NR -28.4139 61.7291 main 970 970 _____P________ -1 -28.4139 61.7291 99 4 142
1874080S13073 1874 9 SI MM NOT_NAMED 1874-03-31 18:00:00 NR -28.5351 61.8389 main 985 985 _____P________ -1 -28.5351 61.8389 99 3 141
1874080S13073 1874 9 SI MM NOT_NAMED 1874-03-31 21:00:00 NR -28.6270 61.9250 main 999 999 _____P________ -1 -28.6270 61.9250 99 2 139
1874080S13073 1874 9 SI MM NOT_NAMED 1874-04-01 00:00:00 NR -28.6968 61.9933 main 1013 1013 _____P________ -1 -28.6968 61.9933 99 2 138
1874080S13073 1874 9 SI MM NOT_NAMED 1874-04-01 03:00:00 NR -28.7521 62.0496 main 1023 1023 _____P________ -1 -28.7521 62.0496 99 1 136
1874080S13073 1874 9 SI MM NOT_NAMED 1874-04-01 06:00:00 NR -28.8000 62.1000 reunion main 1028 _____O________ -1 -28.8000 62.1000 99 9.90000 1 149

About IBTrACS Database

This database is a web-friendly format of International Best Track Archive for Climate Stewardship (IBTrACS), a global best track data archive curated by NOAA dating back to 1842.

Updated: 2021-10-08